sensor_id;sensor_type;location;lat;lon;timestamp;temperature;humidity
13600;DHT22;6871;51.34740610;4.31323160;2023-11-19T00:02:06;14.40;93.50
13600;DHT22;6871;51.34740610;4.31323160;2023-11-19T00:04:38;14.40;93.50
13600;DHT22;6871;51.34740610;4.31323160;2023-11-19T00:07:07;14.40;93.50
13600;DHT22;6871;51.34740610;4.31323160;2023-11-19T00:09:38;14.40;93.50
13600;DHT22;6871;51.34740610;4.31323160;2023-11-19T00:12:08;14.40;93.50
13600;DHT22;6871;51.34740610;4.31323160;2023-11-19T00:14:38;14.40;93.50
13600;DHT22;6871;51.34740610;4.31323160;2023-11-19T00:17:07;14.40;93.50
13600;DHT22;6871;51.34740610;4.31323160;2023-11-19T00:19:36;14.40;93.50
13600;DHT22;6871;51.34740610;4.31323160;2023-11-19T00:22:06;14.40;93.50
13600;DHT22;6871;51.34740610;4.31323160;2023-11-19T00:24:35;14.40;93.60
13600;DHT22;6871;51.34740610;4.31323160;2023-11-19T00:27:05;14.40;93.60
13600;DHT22;6871;51.34740610;4.31323160;2023-11-19T00:29:35;14.40;93.60
13600;DHT22;6871;51.34740610;4.31323160;2023-11-19T00:32:05;14.40;93.50
13600;DHT22;6871;51.34740610;4.31323160;2023-11-19T00:34:35;14.50;93.60
13600;DHT22;6871;51.34740610;4.31323160;2023-11-19T00:37:04;14.40;93.60
13600;DHT22;6871;51.34740610;4.31323160;2023-11-19T00:39:35;14.40;94.00
13600;DHT22;6871;51.34740610;4.31323160;2023-11-19T00:42:05;14.40;93.70
13600;DHT22;6871;51.34740610;4.31323160;2023-11-19T00:44:34;14.40;93.70
13600;DHT22;6871;51.34740610;4.31323160;2023-11-19T00:47:04;14.50;93.70
13600;DHT22;6871;51.34740610;4.31323160;2023-11-19T00:49:33;14.40;93.70
13600;DHT22;6871;51.34740610;4.31323160;2023-11-19T00:52:03;14.40;93.70
13600;DHT22;6871;51.34740610;4.31323160;2023-11-19T00:54:32;14.40;93.80
13600;DHT22;6871;51.34740610;4.31323160;2023-11-19T00:57:02;14.50;93.70
13600;DHT22;6871;51.34740610;4.31323160;2023-11-19T00:59:31;14.50;93.70
13600;DHT22;6871;51.34740610;4.31323160;2023-11-19T01:02:01;14.50;93.80
13600;DHT22;6871;51.34740610;4.31323160;2023-11-19T01:04:34;14.50;93.80
13600;DHT22;6871;51.34740610;4.31323160;2023-11-19T01:07:04;14.50;93.80
13600;DHT22;6871;51.34740610;4.31323160;2023-11-19T01:09:34;14.50;93.80
13600;DHT22;6871;51.34740610;4.31323160;2023-11-19T01:12:04;14.50;93.90
13600;DHT22;6871;51.34740610;4.31323160;2023-11-19T01:14:33;14.50;93.80
13600;DHT22;6871;51.34740610;4.31323160;2023-11-19T01:17:03;14.50;93.80
13600;DHT22;6871;51.34740610;4.31323160;2023-11-19T01:19:33;14.50;93.90
13600;DHT22;6871;51.34740610;4.31323160;2023-11-19T01:22:03;14.50;93.90
13600;DHT22;6871;51.34740610;4.31323160;2023-11-19T01:24:32;14.50;93.90
13600;DHT22;6871;51.34740610;4.31323160;2023-11-19T01:27:01;14.50;93.90
13600;DHT22;6871;51.34740610;4.31323160;2023-11-19T01:29:31;14.50;93.90
13600;DHT22;6871;51.34740610;4.31323160;2023-11-19T01:32:02;14.50;93.80
13600;DHT22;6871;51.34740610;4.31323160;2023-11-19T01:34:31;14.50;93.80
13600;DHT22;6871;51.34740610;4.31323160;2023-11-19T01:37:00;14.50;93.90
13600;DHT22;6871;51.34740610;4.31323160;2023-11-19T01:39:30;14.50;94.30
13600;DHT22;6871;51.34740610;4.31323160;2023-11-19T01:41:59;14.50;93.90
13600;DHT22;6871;51.34740610;4.31323160;2023-11-19T01:44:29;14.50;93.90
13600;DHT22;6871;51.34740610;4.31323160;2023-11-19T01:47:00;14.50;93.80
13600;DHT22;6871;51.34740610;4.31323160;2023-11-19T01:49:32;14.50;93.80
13600;DHT22;6871;51.34740610;4.31323160;2023-11-19T01:52:01;14.50;93.90
13600;DHT22;6871;51.34740610;4.31323160;2023-11-19T01:54:31;14.50;93.90
13600;DHT22;6871;51.34740610;4.31323160;2023-11-19T01:57:04;14.50;93.90
13600;DHT22;6871;51.34740610;4.31323160;2023-11-19T01:59:34;14.50;93.90
13600;DHT22;6871;51.34740610;4.31323160;2023-11-19T02:02:03;14.50;93.90
13600;DHT22;6871;51.34740610;4.31323160;2023-11-19T02:04:33;14.50;93.90
13600;DHT22;6871;51.34740610;4.31323160;2023-11-19T02:07:03;14.50;93.90
13600;DHT22;6871;51.34740610;4.31323160;2023-11-19T02:09:32;14.50;93.90
13600;DHT22;6871;51.34740610;4.31323160;2023-11-19T02:12:02;14.50;93.90
13600;DHT22;6871;51.34740610;4.31323160;2023-11-19T02:14:32;14.50;93.90
13600;DHT22;6871;51.34740610;4.31323160;2023-11-19T02:17:01;14.50;93.90
13600;DHT22;6871;51.34740610;4.31323160;2023-11-19T02:19:31;14.50;93.90
13600;DHT22;6871;51.34740610;4.31323160;2023-11-19T02:22:05;14.50;93.90
13600;DHT22;6871;51.34740610;4.31323160;2023-11-19T02:24:34;14.50;93.90
13600;DHT22;6871;51.34740610;4.31323160;2023-11-19T02:27:07;14.50;94.00
13600;DHT22;6871;51.34740610;4.31323160;2023-11-19T02:29:38;14.50;93.90
13600;DHT22;6871;51.34740610;4.31323160;2023-11-19T02:32:07;14.50;93.90
13600;DHT22;6871;51.34740610;4.31323160;2023-11-19T02:34:37;14.50;93.90
13600;DHT22;6871;51.34740610;4.31323160;2023-11-19T02:37:06;14.50;93.90
13600;DHT22;6871;51.34740610;4.31323160;2023-11-19T02:39:36;14.50;93.90
13600;DHT22;6871;51.34740610;4.31323160;2023-11-19T02:42:06;14.50;93.90
13600;DHT22;6871;51.34740610;4.31323160;2023-11-19T02:44:35;14.50;93.80
13600;DHT22;6871;51.34740610;4.31323160;2023-11-19T02:47:06;14.50;93.80
13600;DHT22;6871;51.34740610;4.31323160;2023-11-19T02:49:35;14.50;93.80
13600;DHT22;6871;51.34740610;4.31323160;2023-11-19T02:52:08;14.50;93.80
13600;DHT22;6871;51.34740610;4.31323160;2023-11-19T02:54:38;14.50;93.80
13600;DHT22;6871;51.34740610;4.31323160;2023-11-19T02:57:07;14.50;93.80
13600;DHT22;6871;51.34740610;4.31323160;2023-11-19T02:59:39;14.50;93.90
13600;DHT22;6871;51.34740610;4.31323160;2023-11-19T03:02:10;14.50;93.80
13600;DHT22;6871;51.34740610;4.31323160;2023-11-19T03:04:40;14.50;93.80
13600;DHT22;6871;51.34740610;4.31323160;2023-11-19T03:07:11;14.50;93.80
13600;DHT22;6871;51.34740610;4.31323160;2023-11-19T03:09:41;14.50;93.80
13600;DHT22;6871;51.34740610;4.31323160;2023-11-19T03:12:12;14.50;93.90
13600;DHT22;6871;51.34740610;4.31323160;2023-11-19T03:14:41;14.50;93.90
13600;DHT22;6871;51.34740610;4.31323160;2023-11-19T03:17:12;14.50;93.90
13600;DHT22;6871;51.34740610;4.31323160;2023-11-19T03:19:41;14.50;93.90
13600;DHT22;6871;51.34740610;4.31323160;2023-11-19T03:22:11;14.50;93.80
13600;DHT22;6871;51.34740610;4.31323160;2023-11-19T03:24:40;14.50;93.80
13600;DHT22;6871;51.34740610;4.31323160;2023-11-19T03:27:09;14.50;93.80
13600;DHT22;6871;51.34740610;4.31323160;2023-11-19T03:29:39;14.50;93.80
13600;DHT22;6871;51.34740610;4.31323160;2023-11-19T03:32:08;14.50;93.80
13600;DHT22;6871;51.34740610;4.31323160;2023-11-19T03:34:37;14.50;93.80
13600;DHT22;6871;51.34740610;4.31323160;2023-11-19T03:37:07;14.50;93.80
13600;DHT22;6871;51.34740610;4.31323160;2023-11-19T03:39:36;14.50;93.70
13600;DHT22;6871;51.34740610;4.31323160;2023-11-19T03:42:06;14.50;93.80
13600;DHT22;6871;51.34740610;4.31323160;2023-11-19T03:44:36;14.60;93.80
13600;DHT22;6871;51.34740610;4.31323160;2023-11-19T03:47:06;14.60;93.80
13600;DHT22;6871;51.34740610;4.31323160;2023-11-19T03:49:35;14.60;93.80
13600;DHT22;6871;51.34740610;4.31323160;2023-11-19T03:52:05;14.50;93.70
13600;DHT22;6871;51.34740610;4.31323160;2023-11-19T03:54:34;14.50;93.70
13600;DHT22;6871;51.34740610;4.31323160;2023-11-19T03:57:04;14.60;93.80
13600;DHT22;6871;51.34740610;4.31323160;2023-11-19T03:59:33;14.60;93.80
13600;DHT22;6871;51.34740610;4.31323160;2023-11-19T04:02:02;14.50;94.10
13600;DHT22;6871;51.34740610;4.31323160;2023-11-19T04:04:32;14.60;93.70
13600;DHT22;6871;51.34740610;4.31323160;2023-11-19T04:07:01;14.60;93.70
13600;DHT22;6871;51.34740610;4.31323160;2023-11-19T04:09:34;14.60;93.70
13600;DHT22;6871;51.34740610;4.31323160;2023-11-19T04:12:06;14.60;93.70
13600;DHT22;6871;51.34740610;4.31323160;2023-11-19T04:14:37;14.50;93.70
13600;DHT22;6871;51.34740610;4.31323160;2023-11-19T04:17:06;14.50;93.70
13600;DHT22;6871;51.34740610;4.31323160;2023-11-19T04:19:35;14.60;93.70
13600;DHT22;6871;51.34740610;4.31323160;2023-11-19T04:22:05;14.60;93.70
13600;DHT22;6871;51.34740610;4.31323160;2023-11-19T04:24:36;14.60;93.70
13600;DHT22;6871;51.34740610;4.31323160;2023-11-19T04:27:06;14.50;93.70
13600;DHT22;6871;51.34740610;4.31323160;2023-11-19T04:29:35;14.60;93.70
13600;DHT22;6871;51.34740610;4.31323160;2023-11-19T04:32:06;14.60;93.70
13600;DHT22;6871;51.34740610;4.31323160;2023-11-19T04:34:35;14.60;93.70
13600;DHT22;6871;51.34740610;4.31323160;2023-11-19T04:37:05;14.60;93.60
13600;DHT22;6871;51.34740610;4.31323160;2023-11-19T04:39:34;14.60;93.60
13600;DHT22;6871;51.34740610;4.31323160;2023-11-19T04:42:05;14.60;93.60
13600;DHT22;6871;51.34740610;4.31323160;2023-11-19T04:44:35;14.60;93.60
13600;DHT22;6871;51.34740610;4.31323160;2023-11-19T04:47:04;14.60;93.60
13600;DHT22;6871;51.34740610;4.31323160;2023-11-19T04:49:34;14.60;93.60
13600;DHT22;6871;51.34740610;4.31323160;2023-11-19T04:52:03;14.60;93.60
13600;DHT22;6871;51.34740610;4.31323160;2023-11-19T04:54:32;14.60;93.50
13600;DHT22;6871;51.34740610;4.31323160;2023-11-19T04:57:02;14.60;93.60
13600;DHT22;6871;51.34740610;4.31323160;2023-11-19T04:59:33;14.60;93.60
13600;DHT22;6871;51.34740610;4.31323160;2023-11-19T05:02:02;14.60;93.60
13600;DHT22;6871;51.34740610;4.31323160;2023-11-19T05:04:32;14.60;93.60
13600;DHT22;6871;51.34740610;4.31323160;2023-11-19T05:07:01;14.60;93.60
13600;DHT22;6871;51.34740610;4.31323160;2023-11-19T05:09:31;14.60;93.60
13600;DHT22;6871;51.34740610;4.31323160;2023-11-19T05:12:00;14.60;93.90
13600;DHT22;6871;51.34740610;4.31323160;2023-11-19T05:14:30;14.60;93.50
13600;DHT22;6871;51.34740610;4.31323160;2023-11-19T05:17:00;14.60;93.50
13600;DHT22;6871;51.34740610;4.31323160;2023-11-19T05:19:29;14.60;93.50
13600;DHT22;6871;51.34740610;4.31323160;2023-11-19T05:21:59;14.60;93.60
13600;DHT22;6871;51.34740610;4.31323160;2023-11-19T05:24:28;14.60;93.50
13600;DHT22;6871;51.34740610;4.31323160;2023-11-19T05:26:58;14.60;93.50
13600;DHT22;6871;51.34740610;4.31323160;2023-11-19T05:29:27;14.60;93.50
13600;DHT22;6871;51.34740610;4.31323160;2023-11-19T05:31:57;14.60;93.50
13600;DHT22;6871;51.34740610;4.31323160;2023-11-19T05:34:27;14.60;93.50
13600;DHT22;6871;51.34740610;4.31323160;2023-11-19T05:36:56;14.60;93.40
13600;DHT22;6871;51.34740610;4.31323160;2023-11-19T05:39:25;14.60;93.40
13600;DHT22;6871;51.34740610;4.31323160;2023-11-19T05:41:55;14.60;93.40
13600;DHT22;6871;51.34740610;4.31323160;2023-11-19T05:44:24;14.60;93.40
13600;DHT22;6871;51.34740610;4.31323160;2023-11-19T05:46:54;14.60;93.40
13600;DHT22;6871;51.34740610;4.31323160;2023-11-19T05:49:23;14.60;93.40
13600;DHT22;6871;51.34740610;4.31323160;2023-11-19T05:51:52;14.60;93.40
13600;DHT22;6871;51.34740610;4.31323160;2023-11-19T05:54:23;14.60;93.30
13600;DHT22;6871;51.34740610;4.31323160;2023-11-19T05:56:53;14.60;93.40
13600;DHT22;6871;51.34740610;4.31323160;2023-11-19T05:59:22;14.60;93.40
13600;DHT22;6871;51.34740610;4.31323160;2023-11-19T06:01:52;14.60;93.40
13600;DHT22;6871;51.34740610;4.31323160;2023-11-19T06:04:21;14.60;93.40
13600;DHT22;6871;51.34740610;4.31323160;2023-11-19T06:06:50;14.60;93.40
13600;DHT22;6871;51.34740610;4.31323160;2023-11-19T06:09:20;14.60;93.40
13600;DHT22;6871;51.34740610;4.31323160;2023-11-19T06:11:51;14.60;93.30
13600;DHT22;6871;51.34740610;4.31323160;2023-11-19T06:14:20;14.60;93.30
13600;DHT22;6871;51.34740610;4.31323160;2023-11-19T06:16:51;14.60;93.30
13600;DHT22;6871;51.34740610;4.31323160;2023-11-19T06:19:20;14.50;93.40
13600;DHT22;6871;51.34740610;4.31323160;2023-11-19T06:21:51;14.60;93.50
13600;DHT22;6871;51.34740610;4.31323160;2023-11-19T06:24:21;14.60;93.80
13600;DHT22;6871;51.34740610;4.31323160;2023-11-19T06:26:50;14.60;93.30
13600;DHT22;6871;51.34740610;4.31323160;2023-11-19T06:29:20;14.60;93.30
13600;DHT22;6871;51.34740610;4.31323160;2023-11-19T06:31:49;14.60;93.30
13600;DHT22;6871;51.34740610;4.31323160;2023-11-19T06:34:19;14.60;93.20
13600;DHT22;6871;51.34740610;4.31323160;2023-11-19T06:36:48;14.60;93.40
13600;DHT22;6871;51.34740610;4.31323160;2023-11-19T06:39:17;14.60;93.30
13600;DHT22;6871;51.34740610;4.31323160;2023-11-19T06:41:47;14.60;93.30
13600;DHT22;6871;51.34740610;4.31323160;2023-11-19T06:44:17;14.50;93.50
13600;DHT22;6871;51.34740610;4.31323160;2023-11-19T06:46:46;14.60;93.50
13600;DHT22;6871;51.34740610;4.31323160;2023-11-19T06:49:17;14.60;93.30
13600;DHT22;6871;51.34740610;4.31323160;2023-11-19T06:51:46;14.60;93.30
13600;DHT22;6871;51.34740610;4.31323160;2023-11-19T06:54:15;14.60;93.20
13600;DHT22;6871;51.34740610;4.31323160;2023-11-19T06:56:45;14.60;93.20
13600;DHT22;6871;51.34740610;4.31323160;2023-11-19T06:59:14;14.50;93.30
13600;DHT22;6871;51.34740610;4.31323160;2023-11-19T07:01:43;14.60;93.70
13600;DHT22;6871;51.34740610;4.31323160;2023-11-19T07:04:13;14.60;93.50
13600;DHT22;6871;51.34740610;4.31323160;2023-11-19T07:06:45;14.60;93.30
13600;DHT22;6871;51.34740610;4.31323160;2023-11-19T07:09:16;14.60;93.20
13600;DHT22;6871;51.34740610;4.31323160;2023-11-19T07:11:46;14.70;93.20
13600;DHT22;6871;51.34740610;4.31323160;2023-11-19T07:14:15;14.70;93.20
13600;DHT22;6871;51.34740610;4.31323160;2023-11-19T07:16:45;14.70;93.20
13600;DHT22;6871;51.34740610;4.31323160;2023-11-19T07:19:14;14.70;93.20
13600;DHT22;6871;51.34740610;4.31323160;2023-11-19T07:21:43;14.70;93.20
13600;DHT22;6871;51.34740610;4.31323160;2023-11-19T07:24:13;14.70;93.20
13600;DHT22;6871;51.34740610;4.31323160;2023-11-19T07:26:43;14.70;93.20
13600;DHT22;6871;51.34740610;4.31323160;2023-11-19T07:29:13;14.70;93.50
13600;DHT22;6871;51.34740610;4.31323160;2023-11-19T07:31:43;14.60;93.50
13600;DHT22;6871;51.34740610;4.31323160;2023-11-19T07:34:12;14.60;93.40
13600;DHT22;6871;51.34740610;4.31323160;2023-11-19T07:36:43;14.60;93.50
13600;DHT22;6871;51.34740610;4.31323160;2023-11-19T07:39:12;14.60;93.60
13600;DHT22;6871;51.34740610;4.31323160;2023-11-19T07:41:42;14.50;94.00
13600;DHT22;6871;51.34740610;4.31323160;2023-11-19T07:44:12;14.50;93.90
13600;DHT22;6871;51.34740610;4.31323160;2023-11-19T07:46:41;14.50;94.20
13600;DHT22;6871;51.34740610;4.31323160;2023-11-19T07:49:12;14.60;93.90
13600;DHT22;6871;51.34740610;4.31323160;2023-11-19T07:51:41;14.60;93.90
13600;DHT22;6871;51.34740610;4.31323160;2023-11-19T07:54:10;14.60;93.80
13600;DHT22;6871;51.34740610;4.31323160;2023-11-19T07:56:41;14.70;93.60
13600;DHT22;6871;51.34740610;4.31323160;2023-11-19T07:59:11;14.70;93.40
13600;DHT22;6871;51.34740610;4.31323160;2023-11-19T08:01:40;14.70;93.30
13600;DHT22;6871;51.34740610;4.31323160;2023-11-19T08:04:09;14.70;93.30
13600;DHT22;6871;51.34740610;4.31323160;2023-11-19T08:06:39;14.70;93.20
13600;DHT22;6871;51.34740610;4.31323160;2023-11-19T08:09:08;14.70;93.20
13600;DHT22;6871;51.34740610;4.31323160;2023-11-19T08:11:40;14.70;93.20
13600;DHT22;6871;51.34740610;4.31323160;2023-11-19T08:14:13;14.70;93.20
13600;DHT22;6871;51.34740610;4.31323160;2023-11-19T08:16:42;14.70;93.20
13600;DHT22;6871;51.34740610;4.31323160;2023-11-19T08:19:12;14.70;93.20
13600;DHT22;6871;51.34740610;4.31323160;2023-11-19T08:21:41;14.70;93.20
13600;DHT22;6871;51.34740610;4.31323160;2023-11-19T08:24:30;14.80;93.30
13600;DHT22;6871;51.34740610;4.31323160;2023-11-19T08:26:59;14.80;93.20
13600;DHT22;6871;51.34740610;4.31323160;2023-11-19T08:29:29;14.80;93.20
13600;DHT22;6871;51.34740610;4.31323160;2023-11-19T08:31:58;14.80;93.20
13600;DHT22;6871;51.34740610;4.31323160;2023-11-19T08:34:29;14.80;93.20
13600;DHT22;6871;51.34740610;4.31323160;2023-11-19T08:36:58;14.80;93.20
13600;DHT22;6871;51.34740610;4.31323160;2023-11-19T08:39:28;14.80;93.20
13600;DHT22;6871;51.34740610;4.31323160;2023-11-19T08:41:58;14.80;93.20
13600;DHT22;6871;51.34740610;4.31323160;2023-11-19T08:44:27;14.90;93.20
13600;DHT22;6871;51.34740610;4.31323160;2023-11-19T08:46:56;14.90;93.70
13600;DHT22;6871;51.34740610;4.31323160;2023-11-19T08:49:26;14.90;93.20
13600;DHT22;6871;51.34740610;4.31323160;2023-11-19T08:51:55;14.90;93.40
13600;DHT22;6871;51.34740610;4.31323160;2023-11-19T08:54:25;14.90;93.30
13600;DHT22;6871;51.34740610;4.31323160;2023-11-19T08:56:54;14.90;93.50
13600;DHT22;6871;51.34740610;4.31323160;2023-11-19T08:59:23;14.90;93.50
13600;DHT22;6871;51.34740610;4.31323160;2023-11-19T09:01:52;15.00;93.40
13600;DHT22;6871;51.34740610;4.31323160;2023-11-19T09:04:22;15.00;93.30
13600;DHT22;6871;51.34740610;4.31323160;2023-11-19T09:06:52;15.00;94.20
13600;DHT22;6871;51.34740610;4.31323160;2023-11-19T09:09:21;15.10;94.70
13600;DHT22;6871;51.34740610;4.31323160;2023-11-19T09:11:50;15.20;95.40
13600;DHT22;6871;51.34740610;4.31323160;2023-11-19T09:14:19;15.30;95.70
13600;DHT22;6871;51.34740610;4.31323160;2023-11-19T09:16:51;15.40;95.50
13600;DHT22;6871;51.34740610;4.31323160;2023-11-19T09:19:20;15.40;95.60
13600;DHT22;6871;51.34740610;4.31323160;2023-11-19T09:21:49;15.40;95.60
13600;DHT22;6871;51.34740610;4.31323160;2023-11-19T09:24:19;15.50;95.30
13600;DHT22;6871;51.34740610;4.31323160;2023-11-19T09:26:48;15.50;94.90
13600;DHT22;6871;51.34740610;4.31323160;2023-11-19T09:29:18;15.50;94.70
13600;DHT22;6871;51.34740610;4.31323160;2023-11-19T09:31:49;15.60;94.50
13600;DHT22;6871;51.34740610;4.31323160;2023-11-19T09:34:18;15.70;94.60
13600;DHT22;6871;51.34740610;4.31323160;2023-11-19T09:36:47;15.70;94.00
13600;DHT22;6871;51.34740610;4.31323160;2023-11-19T09:39:17;15.70;93.80
13600;DHT22;6871;51.34740610;4.31323160;2023-11-19T09:41:46;15.80;93.70
13600;DHT22;6871;51.34740610;4.31323160;2023-11-19T09:44:17;15.80;93.50
13600;DHT22;6871;51.34740610;4.31323160;2023-11-19T09:46:47;15.80;93.40
13600;DHT22;6871;51.34740610;4.31323160;2023-11-19T09:49:18;15.90;93.30
13600;DHT22;6871;51.34740610;4.31323160;2023-11-19T09:51:49;15.90;93.30
13600;DHT22;6871;51.34740610;4.31323160;2023-11-19T09:54:18;15.90;93.20
13600;DHT22;6871;51.34740610;4.31323160;2023-11-19T09:56:47;15.90;93.10
13600;DHT22;6871;51.34740610;4.31323160;2023-11-19T09:59:16;15.90;93.00
13600;DHT22;6871;51.34740610;4.31323160;2023-11-19T10:01:47;16.00;93.00
13600;DHT22;6871;51.34740610;4.31323160;2023-11-19T10:04:17;16.00;92.90
13600;DHT22;6871;51.34740610;4.31323160;2023-11-19T10:06:48;16.00;92.80
13600;DHT22;6871;51.34740610;4.31323160;2023-11-19T10:09:18;16.00;92.70
13600;DHT22;6871;51.34740610;4.31323160;2023-11-19T10:11:48;16.00;92.70
13600;DHT22;6871;51.34740610;4.31323160;2023-11-19T10:14:20;16.00;92.70
13600;DHT22;6871;51.34740610;4.31323160;2023-11-19T10:16:50;15.90;92.80
13600;DHT22;6871;51.34740610;4.31323160;2023-11-19T10:19:20;15.90;92.80
13600;DHT22;6871;51.34740610;4.31323160;2023-11-19T10:21:50;15.90;92.70
13600;DHT22;6871;51.34740610;4.31323160;2023-11-19T10:24:32;15.80;92.70
13600;DHT22;6871;51.34740610;4.31323160;2023-11-19T10:27:01;15.80;92.70
13600;DHT22;6871;51.34740610;4.31323160;2023-11-19T10:29:31;15.70;93.10
13600;DHT22;6871;51.34740610;4.31323160;2023-11-19T10:32:00;15.70;93.30
13600;DHT22;6871;51.34740610;4.31323160;2023-11-19T10:34:30;15.60;93.40
13600;DHT22;6871;51.34740610;4.31323160;2023-11-19T10:36:59;15.60;93.30
13600;DHT22;6871;51.34740610;4.31323160;2023-11-19T10:39:52;15.60;93.20
13600;DHT22;6871;51.34740610;4.31323160;2023-11-19T10:42:25;15.60;93.30
13600;DHT22;6871;51.34740610;4.31323160;2023-11-19T10:44:54;15.00;94.80
13600;DHT22;6871;51.34740610;4.31323160;2023-11-19T10:47:24;14.70;96.10
13600;DHT22;6871;51.34740610;4.31323160;2023-11-19T10:49:54;14.50;96.50
13600;DHT22;6871;51.34740610;4.31323160;2023-11-19T10:52:23;14.50;96.50
13600;DHT22;6871;51.34740610;4.31323160;2023-11-19T10:54:57;14.70;96.50
13600;DHT22;6871;51.34740610;4.31323160;2023-11-19T10:57:29;14.80;96.20
13600;DHT22;6871;51.34740610;4.31323160;2023-11-19T11:00:02;15.00;95.80
13600;DHT22;6871;51.34740610;4.31323160;2023-11-19T11:02:35;15.10;95.30
13600;DHT22;6871;51.34740610;4.31323160;2023-11-19T11:05:08;15.20;95.00
13600;DHT22;6871;51.34740610;4.31323160;2023-11-19T11:07:37;15.30;94.80
13600;DHT22;6871;51.34740610;4.31323160;2023-11-19T11:10:09;15.40;94.50
13600;DHT22;6871;51.34740610;4.31323160;2023-11-19T11:12:39;15.40;94.30
13600;DHT22;6871;51.34740610;4.31323160;2023-11-19T11:15:11;15.50;94.20
13600;DHT22;6871;51.34740610;4.31323160;2023-11-19T11:17:42;15.50;94.00
13600;DHT22;6871;51.34740610;4.31323160;2023-11-19T11:20:13;15.50;93.90
13600;DHT22;6871;51.34740610;4.31323160;2023-11-19T11:22:44;15.60;93.80
13600;DHT22;6871;51.34740610;4.31323160;2023-11-19T11:25:27;15.50;93.80
13600;DHT22;6871;51.34740610;4.31323160;2023-11-19T11:28:07;15.60;94.10
13600;DHT22;6871;51.34740610;4.31323160;2023-11-19T11:30:42;15.60;93.80
13600;DHT22;6871;51.34740610;4.31323160;2023-11-19T11:33:20;15.60;94.00
13600;DHT22;6871;51.34740610;4.31323160;2023-11-19T11:35:52;15.60;93.90
13600;DHT22;6871;51.34740610;4.31323160;2023-11-19T11:38:23;15.60;93.80
13600;DHT22;6871;51.34740610;4.31323160;2023-11-19T11:41:17;15.60;93.80
13600;DHT22;6871;51.34740610;4.31323160;2023-11-19T11:43:53;15.70;93.80
13600;DHT22;6871;51.34740610;4.31323160;2023-11-19T11:46:56;15.70;93.70
13600;DHT22;6871;51.34740610;4.31323160;2023-11-19T11:49:29;15.70;93.70
13600;DHT22;6871;51.34740610;4.31323160;2023-11-19T11:52:03;15.70;93.70
13600;DHT22;6871;51.34740610;4.31323160;2023-11-19T11:54:33;15.70;93.80
13600;DHT22;6871;51.34740610;4.31323160;2023-11-19T11:57:06;15.60;93.80
13600;DHT22;6871;51.34740610;4.31323160;2023-11-19T11:59:56;15.60;93.80
13600;DHT22;6871;51.34740610;4.31323160;2023-11-19T12:05:07;15.60;94.30
13600;DHT22;6871;51.34740610;4.31323160;2023-11-19T12:07:39;15.60;94.20
13600;DHT22;6871;51.34740610;4.31323160;2023-11-19T12:10:11;15.50;94.00
13600;DHT22;6871;51.34740610;4.31323160;2023-11-19T12:12:41;15.50;94.10
13600;DHT22;6871;51.34740610;4.31323160;2023-11-19T12:15:11;15.50;94.10
13600;DHT22;6871;51.34740610;4.31323160;2023-11-19T12:17:47;15.50;94.10
13600;DHT22;6871;51.34740610;4.31323160;2023-11-19T12:20:21;15.50;94.20
13600;DHT22;6871;51.34740610;4.31323160;2023-11-19T12:22:50;15.40;94.20
13600;DHT22;6871;51.34740610;4.31323160;2023-11-19T12:25:21;15.40;94.30
13600;DHT22;6871;51.34740610;4.31323160;2023-11-19T12:27:53;15.40;94.40
13600;DHT22;6871;51.34740610;4.31323160;2023-11-19T12:30:24;15.40;94.40
13600;DHT22;6871;51.34740610;4.31323160;2023-11-19T12:32:53;15.40;94.30
13600;DHT22;6871;51.34740610;4.31323160;2023-11-19T12:35:23;15.40;94.30
13600;DHT22;6871;51.34740610;4.31323160;2023-11-19T12:37:53;15.40;94.40
13600;DHT22;6871;51.34740610;4.31323160;2023-11-19T12:40:23;15.40;94.40
13600;DHT22;6871;51.34740610;4.31323160;2023-11-19T12:42:54;15.40;94.50
13600;DHT22;6871;51.34740610;4.31323160;2023-11-19T12:45:24;15.40;94.40
13600;DHT22;6871;51.34740610;4.31323160;2023-11-19T12:48:07;15.40;94.30
13600;DHT22;6871;51.34740610;4.31323160;2023-11-19T12:50:53;15.50;94.40
13600;DHT22;6871;51.34740610;4.31323160;2023-11-19T12:53:23;15.40;94.40
13600;DHT22;6871;51.34740610;4.31323160;2023-11-19T12:55:53;15.40;94.40
13600;DHT22;6871;51.34740610;4.31323160;2023-11-19T12:58:33;15.40;94.40
13600;DHT22;6871;51.34740610;4.31323160;2023-11-19T13:01:05;15.40;94.40
13600;DHT22;6871;51.34740610;4.31323160;2023-11-19T13:03:35;15.40;94.40
13600;DHT22;6871;51.34740610;4.31323160;2023-11-19T13:06:09;15.40;94.60
13600;DHT22;6871;51.34740610;4.31323160;2023-11-19T13:08:39;15.40;94.60
13600;DHT22;6871;51.34740610;4.31323160;2023-11-19T13:11:09;15.40;94.60
13600;DHT22;6871;51.34740610;4.31323160;2023-11-19T13:13:57;15.40;94.90
13600;DHT22;6871;51.34740610;4.31323160;2023-11-19T13:16:29;15.40;94.50
13600;DHT22;6871;51.34740610;4.31323160;2023-11-19T13:18:58;15.40;94.50
13600;DHT22;6871;51.34740610;4.31323160;2023-11-19T13:21:28;15.40;94.80
13600;DHT22;6871;51.34740610;4.31323160;2023-11-19T13:23:58;15.40;94.70
13600;DHT22;6871;51.34740610;4.31323160;2023-11-19T13:26:28;15.40;94.60
13600;DHT22;6871;51.34740610;4.31323160;2023-11-19T13:28:57;15.40;94.60
13600;DHT22;6871;51.34740610;4.31323160;2023-11-19T13:31:27;15.40;94.50
13600;DHT22;6871;51.34740610;4.31323160;2023-11-19T13:33:56;15.40;94.50
13600;DHT22;6871;51.34740610;4.31323160;2023-11-19T13:36:26;15.40;94.50
13600;DHT22;6871;51.34740610;4.31323160;2023-11-19T13:38:55;15.40;94.40
13600;DHT22;6871;51.34740610;4.31323160;2023-11-19T13:41:27;15.40;94.40
13600;DHT22;6871;51.34740610;4.31323160;2023-11-19T13:43:56;15.40;94.40
13600;DHT22;6871;51.34740610;4.31323160;2023-11-19T13:46:26;15.40;94.40
13600;DHT22;6871;51.34740610;4.31323160;2023-11-19T13:48:55;15.40;94.40
13600;DHT22;6871;51.34740610;4.31323160;2023-11-19T13:51:25;15.40;94.30
13600;DHT22;6871;51.34740610;4.31323160;2023-11-19T13:53:54;15.40;94.30
13600;DHT22;6871;51.34740610;4.31323160;2023-11-19T13:56:23;15.40;94.30